createdAt,value
2023-07-24T00:00:40.928Z,8.70
2023-07-24T00:03:08.816Z,8.68
2023-07-24T00:05:36.430Z,8.43
2023-07-24T00:08:03.992Z,9.23
2023-07-24T00:10:31.695Z,9.02
2023-07-24T00:12:59.207Z,10.50
2023-07-24T00:15:26.611Z,9.35
2023-07-24T00:17:54.346Z,8.93
2023-07-24T00:20:22.163Z,9.18
2023-07-24T00:22:49.428Z,9.07
2023-07-24T00:25:17.226Z,8.88
2023-07-24T00:27:44.697Z,8.63
2023-07-24T00:30:13.591Z,8.90
2023-07-24T00:32:41.497Z,9.20
2023-07-24T00:35:09.824Z,9.83
2023-07-24T00:37:38.249Z,9.15
2023-07-24T00:40:06.629Z,9.25
2023-07-24T00:42:33.949Z,9.02
2023-07-24T00:45:04.123Z,8.95
2023-07-24T00:47:33.303Z,8.77
2023-07-24T00:50:00.669Z,8.50
2023-07-24T00:52:27.948Z,8.23
2023-07-24T00:54:56.054Z,9.57
2023-07-24T00:57:24.662Z,9.77
2023-07-24T00:59:52.225Z,8.80
2023-07-24T01:02:19.832Z,9.47
2023-07-24T01:04:47.894Z,8.97
2023-07-24T01:07:17.815Z,8.15
2023-07-24T01:09:45.654Z,8.02
2023-07-24T01:12:56.593Z,8.97
2023-07-24T01:15:32.594Z,8.60
2023-07-24T01:18:14.995Z,9.20
2023-07-24T01:20:49.758Z,8.80
2023-07-24T01:23:39.052Z,9.03
2023-07-24T01:26:08.293Z,8.82
2023-07-24T01:31:03.097Z,9.45
2023-07-24T01:33:32.912Z,8.50
2023-07-24T01:36:03.742Z,8.27
2023-07-24T01:38:33.660Z,8.02
2023-07-24T01:41:01.729Z,8.13
2023-07-24T01:43:30.993Z,8.77
2023-07-24T01:45:59.207Z,9.05
2023-07-24T01:48:26.702Z,8.77
2023-07-24T01:50:55.396Z,7.93
2023-07-24T01:53:23.088Z,8.80
2023-07-24T01:55:50.396Z,10.17
2023-07-24T01:58:17.768Z,10.60
2023-07-24T02:00:45.464Z,10.33
2023-07-24T02:03:12.710Z,10.20
2023-07-24T02:05:40.401Z,10.23
2023-07-24T02:08:07.735Z,10.47
2023-07-24T02:10:38.994Z,9.67
2023-07-24T02:13:08.786Z,10.03
2023-07-24T02:15:37.453Z,10.07
2023-07-24T02:20:32.354Z,8.70
2023-07-24T02:22:59.625Z,10.27
2023-07-24T02:25:28.280Z,9.52
2023-07-24T02:27:55.679Z,10.33
2023-07-24T02:30:24.588Z,9.88
2023-07-24T02:32:52.520Z,9.33
2023-07-24T02:35:19.895Z,9.40
2023-07-24T02:37:47.227Z,11.07
2023-07-24T02:40:15.238Z,9.27
2023-07-24T02:42:42.910Z,9.33
2023-07-24T02:45:12.301Z,10.30
2023-07-24T02:47:40.101Z,10.20
2023-07-24T02:50:07.975Z,10.37
2023-07-24T02:52:35.375Z,9.43
2023-07-24T02:55:03.180Z,9.93
2023-07-24T02:57:30.753Z,9.67
2023-07-24T02:59:58.173Z,10.27
2023-07-24T03:02:26.263Z,10.03
2023-07-24T03:04:53.842Z,10.00
2023-07-24T03:07:21.309Z,10.27
2023-07-24T03:09:49.287Z,10.23
2023-07-24T03:12:16.761Z,9.83
2023-07-24T03:14:44.626Z,9.80
2023-07-24T03:17:12.611Z,10.13
2023-07-24T03:19:40.102Z,10.00
2023-07-24T03:22:07.678Z,10.03
2023-07-24T03:24:37.109Z,9.73
2023-07-24T03:27:04.946Z,9.50
2023-07-24T03:29:32.376Z,10.00
2023-07-24T03:32:00.689Z,9.60
2023-07-24T03:34:28.210Z,10.03
2023-07-24T03:36:55.582Z,9.33
2023-07-24T03:39:24.102Z,12.27
2023-07-24T03:41:52.848Z,10.07
2023-07-24T03:44:20.280Z,10.60
2023-07-24T03:46:48.129Z,10.47
2023-07-24T03:49:15.562Z,11.37
2023-07-24T03:51:43.058Z,11.27
2023-07-24T03:54:11.945Z,11.30
2023-07-24T03:56:39.251Z,11.17
2023-07-24T03:59:07.314Z,10.97
2023-07-24T04:01:35.450Z,10.75
2023-07-24T04:04:03.235Z,12.23
2023-07-24T04:06:31.470Z,10.83
2023-07-24T04:11:27.486Z,11.37
2023-07-24T04:13:54.890Z,11.30
2023-07-24T04:16:22.398Z,11.47
2023-07-24T04:18:50.110Z,10.87
2023-07-24T04:21:17.431Z,11.03
2023-07-24T04:23:44.867Z,12.83
2023-07-24T04:26:12.599Z,11.03
2023-07-24T04:28:39.942Z,10.23
2023-07-24T04:31:07.456Z,11.77
2023-07-24T04:33:35.148Z,11.73
2023-07-24T04:36:02.741Z,11.43
2023-07-24T04:38:30.398Z,11.17
2023-07-24T04:40:58.663Z,11.85
2023-07-24T04:43:26.547Z,11.93
2023-07-24T04:45:53.833Z,13.00
2023-07-24T04:48:21.843Z,12.23
2023-07-24T04:50:55.194Z,11.73
2023-07-24T04:53:23.487Z,12.47
2023-07-24T04:55:50.875Z,11.63
2023-07-24T04:58:18.682Z,12.00
2023-07-24T05:00:46.532Z,12.63
2023-07-24T05:03:14.017Z,12.70
2023-07-24T05:05:45.070Z,11.73
2023-07-24T05:08:14.873Z,12.97
2023-07-24T05:10:42.472Z,12.97
2023-07-24T05:13:11.984Z,13.10
2023-07-24T05:15:41.180Z,13.00
2023-07-24T05:18:08.486Z,13.45
2023-07-24T05:20:35.916Z,14.15
2023-07-24T05:23:04.272Z,12.30
2023-07-24T05:25:31.835Z,12.90
2023-07-24T05:27:59.432Z,14.70
2023-07-24T05:30:27.205Z,13.05
2023-07-24T05:32:54.639Z,13.60
2023-07-24T05:35:22.204Z,13.60
2023-07-24T05:37:50.337Z,13.93
2023-07-24T05:40:18.056Z,14.18
2023-07-24T05:42:45.565Z,15.30
2023-07-24T05:45:13.657Z,14.27
2023-07-24T05:47:41.307Z,15.40
2023-07-24T05:50:09.579Z,15.13
2023-07-24T05:52:37.343Z,14.60
2023-07-24T05:55:05.090Z,13.90
2023-07-24T05:57:32.580Z,15.50
2023-07-24T06:00:00.462Z,14.68
2023-07-24T06:02:28.124Z,15.95
2023-07-24T06:04:55.898Z,17.70
2023-07-24T06:07:23.480Z,14.65
2023-07-24T06:09:51.401Z,16.40
2023-07-24T06:12:19.355Z,15.25
2023-07-24T06:14:47.006Z,15.48
2023-07-24T06:17:14.599Z,15.35
2023-07-24T06:19:42.404Z,15.50
2023-07-24T06:22:10.150Z,14.90
2023-07-24T06:24:37.754Z,15.07
2023-07-24T06:27:07.881Z,14.33
2023-07-24T06:29:40.134Z,13.48
2023-07-24T06:32:09.485Z,14.13
2023-07-24T06:34:37.241Z,14.25
2023-07-24T06:37:20.586Z,13.55
2023-07-24T06:39:50.370Z,14.07
2023-07-24T06:42:17.990Z,14.25
2023-07-24T06:44:45.458Z,13.68
2023-07-24T06:47:13.721Z,13.23
2023-07-24T06:49:41.195Z,13.65
2023-07-24T06:52:08.773Z,14.32
2023-07-24T06:54:36.628Z,14.10
2023-07-24T06:57:04.320Z,14.15
2023-07-24T06:59:32.194Z,14.20
2023-07-24T07:01:59.990Z,13.18
2023-07-24T07:04:27.552Z,14.15
2023-07-24T07:06:55.299Z,14.55
2023-07-24T07:09:23.284Z,14.50
2023-07-24T07:11:51.488Z,15.53
2023-07-24T07:14:19.166Z,14.82
2023-07-24T07:16:48.977Z,14.13
2023-07-24T07:19:17.077Z,13.80
2023-07-24T07:21:44.665Z,12.95
2023-07-24T07:24:12.767Z,13.98
2023-07-24T07:26:40.511Z,13.80
2023-07-24T07:29:08.919Z,13.70
2023-07-24T07:31:37.195Z,14.02
2023-07-24T07:34:04.766Z,13.30
2023-07-24T07:36:32.961Z,13.27
2023-07-24T07:39:00.985Z,14.20
2023-07-24T07:41:29.888Z,13.40
2023-07-24T07:43:57.510Z,15.20
2023-07-24T07:46:26.434Z,14.73
2023-07-24T07:48:54.517Z,14.55
2023-07-24T07:51:22.499Z,12.68
2023-07-24T07:53:50.622Z,12.43
2023-07-24T07:56:18.409Z,13.02
2023-07-24T07:58:46.048Z,11.30
2023-07-24T08:01:14.069Z,11.70
2023-07-24T08:03:42.896Z,12.90
2023-07-24T08:06:11.401Z,12.02
2023-07-24T08:08:39.654Z,13.10
2023-07-24T08:13:35.945Z,11.80
2023-07-24T08:18:32.579Z,11.75
2023-07-24T08:21:00.108Z,12.00
2023-07-24T08:23:27.616Z,11.20
2023-07-24T08:25:56.085Z,11.45
2023-07-24T08:28:23.920Z,12.20
2023-07-24T08:31:06.696Z,12.00
2023-07-24T08:33:35.318Z,12.20
2023-07-24T08:36:05.441Z,12.37
2023-07-24T08:38:34.428Z,12.52
2023-07-24T08:41:06.898Z,12.68
2023-07-24T08:43:36.604Z,12.18
2023-07-24T08:46:05.857Z,13.77
2023-07-24T08:48:39.615Z,13.50
2023-07-24T08:51:09.968Z,13.50
2023-07-24T08:53:39.597Z,12.30
2023-07-24T08:56:09.448Z,13.45
2023-07-24T08:58:37.559Z,14.82
2023-07-24T09:01:05.860Z,14.73
2023-07-24T09:03:34.785Z,15.57
2023-07-24T09:06:05.269Z,14.27
2023-07-24T09:08:35.140Z,14.20
2023-07-24T09:11:05.115Z,13.82
2023-07-24T09:13:32.874Z,13.48
2023-07-24T09:16:00.811Z,13.68
2023-07-24T09:18:41.277Z,13.32
2023-07-24T09:21:09.098Z,13.15
2023-07-24T09:23:37.793Z,12.48
2023-07-24T09:26:09.265Z,14.40
2023-07-24T09:28:38.013Z,13.62
2023-07-24T09:31:06.265Z,14.07
2023-07-24T09:33:39.178Z,14.00
2023-07-24T09:36:11.205Z,13.65
2023-07-24T09:38:40.284Z,13.57
2023-07-24T09:41:08.637Z,12.68
2023-07-24T09:46:10.872Z,13.05
2023-07-24T09:48:42.214Z,12.20
2023-07-24T09:51:14.841Z,10.80
2023-07-24T09:53:52.682Z,12.43
2023-07-24T09:59:01.676Z,11.55
2023-07-24T10:01:31.506Z,11.68
2023-07-24T10:04:01.468Z,11.23
2023-07-24T10:06:31.575Z,12.02
2023-07-24T10:09:00.086Z,11.48
2023-07-24T10:13:56.078Z,12.35
2023-07-24T10:16:24.557Z,11.38
2023-07-24T10:18:52.024Z,11.52
2023-07-24T10:21:19.586Z,12.30
2023-07-24T10:23:47.901Z,11.30
2023-07-24T10:26:17.345Z,10.60
2023-07-24T10:28:48.991Z,10.90
2023-07-24T10:31:30.016Z,11.48
2023-07-24T10:34:06.012Z,10.27
2023-07-24T10:36:38.175Z,11.38
2023-07-24T10:39:15.439Z,10.63
2023-07-24T10:41:46.793Z,10.98
2023-07-24T10:44:14.974Z,10.32
2023-07-24T10:46:44.226Z,10.45
2023-07-24T10:49:13.735Z,10.43
2023-07-24T10:51:41.286Z,10.70
2023-07-24T10:54:09.087Z,9.85
2023-07-24T10:56:39.006Z,9.30
2023-07-24T10:59:07.942Z,10.18
2023-07-24T11:01:36.513Z,11.00
2023-07-24T11:04:04.983Z,10.48
2023-07-24T11:06:32.517Z,10.45
2023-07-24T11:09:01.441Z,10.82
2023-07-24T11:11:31.149Z,10.10
2023-07-24T11:13:59.281Z,10.15
2023-07-24T11:16:27.723Z,9.00
2023-07-24T11:18:57.100Z,10.25
2023-07-24T11:21:25.643Z,9.48
2023-07-24T11:23:56.239Z,9.60
2023-07-24T11:26:25.914Z,10.60
2023-07-24T11:28:54.572Z,10.60
2023-07-24T11:31:22.586Z,10.75
2023-07-24T11:33:51.749Z,10.98
2023-07-24T11:36:20.456Z,9.65
2023-07-24T11:38:50.207Z,10.07
2023-07-24T11:41:26.804Z,9.68
2023-07-24T11:43:54.811Z,9.10
2023-07-24T11:46:27.420Z,9.38
2023-07-24T11:48:58.804Z,8.98
2023-07-24T11:51:30.800Z,9.93
2023-07-24T11:54:09.023Z,9.73
2023-07-24T11:56:37.644Z,10.02
2023-07-24T11:59:13.191Z,8.65
2023-07-24T12:01:41.247Z,9.95
2023-07-24T12:04:09.407Z,9.15
2023-07-24T12:09:08.867Z,9.98
2023-07-24T12:11:45.568Z,9.00
2023-07-24T12:14:15.462Z,9.63
2023-07-24T12:16:43.440Z,9.10
2023-07-24T12:19:10.865Z,9.85
2023-07-24T12:21:38.280Z,9.85
2023-07-24T12:24:06.447Z,9.95
2023-07-24T12:26:33.970Z,9.70
2023-07-24T12:29:01.928Z,9.18
2023-07-24T12:31:30.300Z,10.63
2023-07-24T12:33:58.251Z,9.52
2023-07-24T12:36:25.819Z,9.07
2023-07-24T12:38:53.597Z,9.88
2023-07-24T12:41:21.100Z,9.90
2023-07-24T12:43:48.598Z,9.48
2023-07-24T12:46:16.485Z,8.77
2023-07-24T12:48:43.952Z,8.55
2023-07-24T12:51:11.370Z,8.25
2023-07-24T12:53:44.073Z,8.98
2023-07-24T12:56:26.410Z,8.82
2023-07-24T13:01:25.330Z,8.55
2023-07-24T13:03:53.384Z,8.82
2023-07-24T13:06:21.300Z,8.20
2023-07-24T13:08:49.134Z,9.98
2023-07-24T13:11:16.662Z,8.45
2023-07-24T13:13:45.426Z,8.25
2023-07-24T13:16:12.885Z,9.20
2023-07-24T13:18:40.383Z,8.73
2023-07-24T13:21:09.275Z,8.85
2023-07-24T13:23:36.651Z,9.27
2023-07-24T13:26:04.773Z,10.48
2023-07-24T13:28:32.549Z,8.27
2023-07-24T13:31:00.122Z,8.38
2023-07-24T13:33:27.674Z,8.88
2023-07-24T13:35:55.519Z,9.32
2023-07-24T13:38:22.939Z,8.68
2023-07-24T13:40:51.087Z,9.30
2023-07-24T13:43:20.054Z,9.02
2023-07-24T13:45:47.609Z,9.00
2023-07-24T13:48:15.015Z,8.30
2023-07-24T13:50:42.858Z,8.55
2023-07-24T13:53:10.543Z,9.02
2023-07-24T13:55:37.969Z,9.45
2023-07-24T13:58:05.823Z,8.52
2023-07-24T14:00:33.647Z,8.48
2023-07-24T14:05:30.007Z,8.82
2023-07-24T14:07:57.454Z,8.73
2023-07-24T14:10:25.224Z,8.50
2023-07-24T14:12:52.665Z,9.00
2023-07-24T14:15:20.015Z,8.95
2023-07-24T14:17:48.006Z,9.05
2023-07-24T14:20:15.507Z,9.30
2023-07-24T14:22:43.148Z,8.98
2023-07-24T14:27:38.262Z,9.75
2023-07-24T14:30:06.598Z,8.50
2023-07-24T14:32:34.413Z,9.70
2023-07-24T14:35:01.964Z,8.60
2023-07-24T14:37:29.549Z,8.63
2023-07-24T14:39:57.315Z,8.38
2023-07-24T14:42:24.796Z,8.68
2023-07-24T14:44:52.254Z,8.52
2023-07-24T14:47:20.078Z,9.07
2023-07-24T14:49:47.581Z,8.80
2023-07-24T14:52:15.047Z,9.23
2023-07-24T14:54:42.815Z,8.70
2023-07-24T14:57:23.488Z,8.55
2023-07-24T14:59:52.481Z,9.30
2023-07-24T15:02:20.173Z,9.20
2023-07-24T15:04:47.634Z,8.77
2023-07-24T15:07:15.588Z,8.50
2023-07-24T15:09:43.731Z,8.13
2023-07-24T15:12:11.343Z,10.05
2023-07-24T15:14:39.139Z,9.43
2023-07-24T15:17:06.609Z,9.15
2023-07-24T15:19:34.244Z,9.05
2023-07-24T15:22:02.135Z,9.48
2023-07-24T15:24:29.680Z,9.80
2023-07-24T15:26:57.144Z,9.35
2023-07-24T15:29:24.974Z,9.50
2023-07-24T15:31:52.750Z,9.25
2023-07-24T15:34:20.278Z,9.65
2023-07-24T15:36:48.077Z,8.55
2023-07-24T15:39:15.462Z,8.52
2023-07-24T15:41:42.937Z,8.77
2023-07-24T15:44:10.676Z,9.65
2023-07-24T15:46:38.168Z,8.80
2023-07-24T15:51:33.935Z,10.20
2023-07-24T15:54:03.660Z,9.32
2023-07-24T15:56:31.052Z,8.60
2023-07-24T15:58:58.799Z,9.02
2023-07-24T16:01:28.098Z,9.40
2023-07-24T16:03:56.107Z,9.30
2023-07-24T16:06:23.663Z,9.88
2023-07-24T16:11:18.864Z,9.82
2023-07-24T16:13:46.377Z,10.20
2023-07-24T16:18:43.561Z,9.07
2023-07-24T16:21:11.047Z,9.82
2023-07-24T16:23:38.609Z,9.80
2023-07-24T16:26:06.456Z,10.63
2023-07-24T16:28:34.029Z,10.65
2023-07-24T16:31:01.669Z,10.48
2023-07-24T16:33:31.212Z,10.20
2023-07-24T16:35:58.909Z,9.82
2023-07-24T16:38:26.326Z,10.15
2023-07-24T16:40:54.324Z,10.52
2023-07-24T16:43:23.579Z,9.98
2023-07-24T16:48:23.330Z,10.77
2023-07-24T16:50:50.917Z,11.38
2023-07-24T16:53:18.382Z,10.27
2023-07-24T16:55:46.120Z,10.43
2023-07-24T16:58:13.709Z,10.48
2023-07-24T17:00:41.284Z,11.80
2023-07-24T17:03:09.466Z,10.52
2023-07-24T17:05:37.866Z,10.45
2023-07-24T17:08:05.757Z,10.20
2023-07-24T17:10:45.299Z,11.63
2023-07-24T17:13:13.341Z,10.82
2023-07-24T17:15:41.353Z,12.13
2023-07-24T17:18:08.862Z,11.90
2023-07-24T17:20:36.694Z,10.95
2023-07-24T17:25:31.780Z,9.67
2023-07-24T17:27:59.377Z,10.70
2023-07-24T17:30:27.150Z,13.35
2023-07-24T17:32:55.222Z,11.67
2023-07-24T17:35:23.033Z,12.30
2023-07-24T17:37:50.772Z,11.48
2023-07-24T17:40:18.797Z,12.17
2023-07-24T17:42:46.149Z,10.70
2023-07-24T17:45:16.091Z,12.20
2023-07-24T17:48:05.288Z,10.15
2023-07-24T17:50:35.658Z,12.90
2023-07-24T17:53:03.879Z,10.15
2023-07-24T17:55:31.685Z,10.85
2023-07-24T17:57:59.864Z,10.75
2023-07-24T18:00:28.204Z,10.65
2023-07-24T18:02:56.098Z,10.65
2023-07-24T18:05:23.721Z,11.12
2023-07-24T18:07:52.790Z,10.97
2023-07-24T18:10:21.882Z,10.63
2023-07-24T18:12:50.077Z,11.57
2023-07-24T18:15:17.721Z,10.90
2023-07-24T18:17:46.864Z,11.25
2023-07-24T18:20:15.007Z,10.35
2023-07-24T18:22:44.096Z,11.55
2023-07-24T18:25:11.933Z,11.07
2023-07-24T18:27:40.206Z,11.13
2023-07-24T18:30:08.649Z,10.35
2023-07-24T18:32:40.229Z,11.25
2023-07-24T18:37:35.534Z,11.30
2023-07-24T18:40:03.016Z,10.93
2023-07-24T18:42:34.619Z,11.15
2023-07-24T18:45:03.053Z,11.07
2023-07-24T18:47:31.851Z,11.83
2023-07-24T18:49:59.375Z,11.63
2023-07-24T18:52:27.309Z,11.00
2023-07-24T18:54:54.787Z,10.00
2023-07-24T18:57:22.552Z,11.55
2023-07-24T18:59:50.419Z,10.75
2023-07-24T19:02:18.222Z,11.15
2023-07-24T19:04:45.721Z,11.07
2023-07-24T19:07:14.122Z,11.35
2023-07-24T19:09:41.627Z,11.40
2023-07-24T19:12:09.315Z,11.77
2023-07-24T19:14:37.188Z,11.82
2023-07-24T19:17:05.073Z,11.20
2023-07-24T19:19:32.748Z,10.60
2023-07-24T19:22:00.607Z,11.20
2023-07-24T19:24:28.240Z,10.77
2023-07-24T19:26:55.709Z,11.45
2023-07-24T19:29:23.508Z,11.25
2023-07-24T19:31:52.241Z,10.40
2023-07-24T19:34:19.969Z,10.73
2023-07-24T19:36:47.831Z,11.25
2023-07-24T19:39:15.326Z,10.60
2023-07-24T19:41:42.787Z,11.38
2023-07-24T19:44:10.829Z,10.47
2023-07-24T19:46:38.234Z,10.80
2023-07-24T19:49:05.846Z,10.95
2023-07-24T19:51:33.925Z,10.98
2023-07-24T19:54:01.607Z,12.20
2023-07-24T19:56:29.002Z,11.93
2023-07-24T19:58:56.817Z,13.17
2023-07-24T20:01:27.183Z,13.18
2023-07-24T20:03:55.106Z,11.60
2023-07-24T20:06:22.607Z,11.52
2023-07-24T20:08:50.208Z,10.80
2023-07-24T20:11:18.046Z,11.50
2023-07-24T20:13:45.594Z,10.93
2023-07-24T20:16:13.209Z,11.85
2023-07-24T20:18:41.114Z,11.75
2023-07-24T20:21:08.511Z,11.02
2023-07-24T20:23:36.083Z,10.73
2023-07-24T20:26:04.174Z,10.40
2023-07-24T20:28:31.637Z,11.18
2023-07-24T20:30:59.701Z,11.40
2023-07-24T20:33:28.016Z,10.85
2023-07-24T20:35:55.464Z,13.10
2023-07-24T20:38:28.334Z,12.00
2023-07-24T20:40:59.259Z,12.50
2023-07-24T20:43:26.727Z,11.88
2023-07-24T20:45:54.401Z,12.77
2023-07-24T20:48:23.178Z,12.63
2023-07-24T20:50:50.843Z,10.45
2023-07-24T20:53:18.268Z,11.75
2023-07-24T20:55:46.114Z,11.87
2023-07-24T20:58:13.708Z,11.68
2023-07-24T21:00:41.262Z,12.32
2023-07-24T21:03:09.138Z,11.33
2023-07-24T21:05:38.094Z,10.98
2023-07-24T21:08:06.373Z,11.32
2023-07-24T21:10:34.157Z,10.68
2023-07-24T21:13:01.611Z,11.52
2023-07-24T21:15:29.121Z,10.90
2023-07-24T21:17:57.006Z,12.23
2023-07-24T21:20:24.608Z,10.13
2023-07-24T21:22:52.181Z,11.35
2023-07-24T21:25:20.018Z,11.30
2023-07-24T21:27:47.483Z,10.98
2023-07-24T21:30:15.334Z,10.80
2023-07-24T21:32:43.260Z,10.25
2023-07-24T21:35:11.087Z,11.18
2023-07-24T21:37:40.242Z,11.50
2023-07-24T21:40:09.312Z,10.10
2023-07-24T21:42:36.767Z,11.15
2023-07-24T21:45:04.768Z,11.07
2023-07-24T21:47:32.553Z,10.73
2023-07-24T21:50:00.058Z,10.27
2023-07-24T21:52:27.454Z,11.07
2023-07-24T21:54:55.296Z,10.87
2023-07-24T21:57:22.847Z,11.88
2023-07-24T21:59:50.297Z,10.38
2023-07-24T22:02:18.089Z,11.15
2023-07-24T22:04:46.049Z,11.12
2023-07-24T22:07:13.495Z,11.98
2023-07-24T22:09:40.895Z,10.90
2023-07-24T22:12:08.971Z,11.63
2023-07-24T22:14:36.607Z,11.00
2023-07-24T22:17:04.385Z,10.63
2023-07-24T22:19:32.222Z,10.52
2023-07-24T22:21:59.793Z,10.77
2023-07-24T22:24:27.250Z,11.70
2023-07-24T22:26:54.978Z,10.67
2023-07-24T22:29:22.337Z,10.77
2023-07-24T22:31:49.731Z,10.85
2023-07-24T22:34:17.523Z,10.57
2023-07-24T22:36:45.140Z,11.35
2023-07-24T22:39:12.550Z,10.63
2023-07-24T22:41:40.392Z,11.88
2023-07-24T22:44:07.856Z,11.73
2023-07-24T22:46:35.358Z,10.48
2023-07-24T22:49:03.280Z,10.80
2023-07-24T22:51:30.990Z,10.95
2023-07-24T22:53:59.094Z,10.43
2023-07-24T22:56:27.094Z,10.82
2023-07-24T22:59:03.739Z,10.82
2023-07-24T23:01:33.376Z,10.30
2023-07-24T23:04:01.341Z,10.02
2023-07-24T23:06:28.851Z,11.88
2023-07-24T23:08:56.574Z,10.98
2023-07-24T23:11:23.914Z,10.65
2023-07-24T23:13:51.289Z,10.55
2023-07-24T23:16:18.899Z,11.30
2023-07-24T23:18:46.243Z,10.23
2023-07-24T23:21:13.686Z,10.93
2023-07-24T23:23:41.431Z,11.05
2023-07-24T23:26:09.002Z,11.60
2023-07-24T23:28:36.388Z,10.25
2023-07-24T23:31:05.503Z,10.20
2023-07-24T23:33:37.354Z,11.07
2023-07-24T23:36:08.211Z,12.32
2023-07-24T23:38:36.979Z,10.10
2023-07-24T23:41:06.496Z,11.10
2023-07-24T23:43:34.649Z,12.05
2023-07-24T23:46:09.145Z,10.90
2023-07-24T23:48:37.149Z,9.95
2023-07-24T23:51:04.533Z,11.12
2023-07-24T23:53:31.958Z,11.70
2023-07-24T23:55:59.766Z,10.45
2023-07-24T23:58:27.243Z,11.45
